createdAt,value
2023-04-23T00:01:05.684Z,6.16
2023-04-23T00:03:36.358Z,6.16
2023-04-23T00:06:08.094Z,6.18
2023-04-23T00:08:35.134Z,6.25
2023-04-23T00:11:01.861Z,6.22
2023-04-23T00:13:28.743Z,6.14
2023-04-23T00:15:55.699Z,6.01
2023-04-23T00:18:22.337Z,5.99
2023-04-23T00:20:49.090Z,5.93
2023-04-23T00:23:15.819Z,5.91
2023-04-23T00:25:42.438Z,5.97
2023-04-23T00:28:09.091Z,6.06
2023-04-23T00:30:35.732Z,6.11
2023-04-23T00:33:02.463Z,6.17
2023-04-23T00:35:29.158Z,6.22
2023-04-23T00:37:55.882Z,6.24
2023-04-23T00:40:23.685Z,6.22
2023-04-23T00:42:52.281Z,6.28
2023-04-23T00:45:19.021Z,6.35
2023-04-23T00:47:46.326Z,6.41
2023-04-23T00:50:13.384Z,6.48
2023-04-23T00:52:40.813Z,6.50
2023-04-23T00:55:08.588Z,6.52
2023-04-23T00:57:36.576Z,6.53
2023-04-23T01:00:05.880Z,6.56
2023-04-23T01:02:32.727Z,6.55
2023-04-23T01:05:00.549Z,6.62
2023-04-23T01:07:27.578Z,6.62
2023-04-23T01:09:54.202Z,6.65
2023-04-23T01:12:20.943Z,6.64
2023-04-23T01:14:47.592Z,6.64
2023-04-23T01:17:14.492Z,6.61
2023-04-23T01:19:41.220Z,6.55
2023-04-23T01:22:14.314Z,6.53
2023-04-23T01:24:42.836Z,6.53
2023-04-23T01:27:09.910Z,6.55
2023-04-23T01:29:36.667Z,6.55
2023-04-23T01:32:03.440Z,6.56
2023-04-23T01:34:33.682Z,6.62
2023-04-23T01:37:00.431Z,6.66
2023-04-23T01:39:27.119Z,6.68
2023-04-23T01:41:53.851Z,6.64
2023-04-23T01:44:20.631Z,6.61
2023-04-23T01:46:47.345Z,6.64
2023-04-23T01:49:14.034Z,6.66
2023-04-23T01:51:40.676Z,6.75
2023-04-23T01:54:07.415Z,6.77
2023-04-23T01:56:35.749Z,6.71
2023-04-23T01:59:02.625Z,6.62
2023-04-23T02:01:47.679Z,6.62
2023-04-23T02:04:14.957Z,6.56
2023-04-23T02:06:42.397Z,6.55
2023-04-23T02:09:09.100Z,6.49
2023-04-23T02:11:35.777Z,6.53
2023-04-23T02:14:02.561Z,6.53
2023-04-23T02:16:29.321Z,6.53
2023-04-23T02:18:56.092Z,6.52
2023-04-23T02:21:24.434Z,6.53
2023-04-23T02:23:51.282Z,6.48
2023-04-23T02:26:18.921Z,6.42
2023-04-23T02:28:46.317Z,6.34
2023-04-23T02:31:13.093Z,6.41
2023-04-23T02:33:41.388Z,6.44
2023-04-23T02:36:08.220Z,6.34
2023-04-23T02:38:34.917Z,6.32
2023-04-23T02:41:01.584Z,6.24
2023-04-23T02:43:28.236Z,6.31
2023-04-23T02:45:54.988Z,6.29
2023-04-23T02:48:22.413Z,6.37
2023-04-23T02:50:49.188Z,6.37
2023-04-23T02:53:16.411Z,6.41
2023-04-23T02:55:43.092Z,6.42
2023-04-23T02:58:10.320Z,6.38
2023-04-23T03:00:37.030Z,6.39
2023-04-23T03:03:03.843Z,6.45
2023-04-23T03:05:30.764Z,6.46
2023-04-23T03:07:57.474Z,6.46
2023-04-23T03:10:24.181Z,6.42
2023-04-23T03:12:50.944Z,6.42
2023-04-23T03:15:18.174Z,6.42
2023-04-23T03:17:44.898Z,6.44
2023-04-23T03:20:11.833Z,6.44
2023-04-23T03:22:38.575Z,6.44
2023-04-23T03:25:05.576Z,6.44
2023-04-23T03:27:32.421Z,6.41
2023-04-23T03:29:59.151Z,6.38
2023-04-23T03:32:25.764Z,6.38
2023-04-23T03:34:52.454Z,6.34
2023-04-23T03:37:19.071Z,6.29
2023-04-23T03:39:45.758Z,6.24
2023-04-23T03:42:12.424Z,6.20
2023-04-23T03:44:39.219Z,6.20
2023-04-23T03:47:05.951Z,6.18
2023-04-23T03:49:32.779Z,6.25
2023-04-23T03:51:59.488Z,6.20
2023-04-23T03:54:28.192Z,6.14
2023-04-23T03:56:54.809Z,6.16
2023-04-23T03:59:22.878Z,6.18
2023-04-23T04:01:49.501Z,6.18
2023-04-23T04:04:16.294Z,6.25
2023-04-23T04:06:43.408Z,6.25
2023-04-23T04:15:48.403Z,6.14
2023-04-23T04:18:15.182Z,6.11
2023-04-23T04:20:44.307Z,6.14
2023-04-23T04:23:11.053Z,6.16
2023-04-23T04:25:40.185Z,6.17
2023-04-23T04:28:12.016Z,6.28
2023-04-23T04:30:39.518Z,6.39
2023-04-23T04:33:06.194Z,6.42
2023-04-23T04:35:32.923Z,6.49
2023-04-23T04:38:00.061Z,6.56
2023-04-23T04:40:27.208Z,6.62
2023-04-23T04:42:55.181Z,6.69
2023-04-23T04:45:21.873Z,6.80
2023-04-23T04:47:48.569Z,6.85
2023-04-23T04:50:15.295Z,6.87
2023-04-23T04:52:41.977Z,6.83
2023-04-23T04:55:09.149Z,6.90
2023-04-23T04:57:36.639Z,7.00
2023-04-23T05:00:05.136Z,7.11
2023-04-23T05:02:31.912Z,7.13
2023-04-23T05:04:58.656Z,7.25
2023-04-23T05:07:25.292Z,7.25
2023-04-23T05:09:51.964Z,7.32
2023-04-23T05:12:18.620Z,7.41
2023-04-23T05:14:45.280Z,7.55
2023-04-23T05:17:11.946Z,7.66
2023-04-23T05:19:38.606Z,7.66
2023-04-23T05:22:05.288Z,7.75
2023-04-23T05:24:32.403Z,7.86
2023-04-23T05:26:59.047Z,7.99
2023-04-23T05:29:25.772Z,8.12
2023-04-23T05:31:52.449Z,8.27
2023-04-23T05:34:19.135Z,8.54
2023-04-23T05:36:45.838Z,8.89
2023-04-23T05:39:12.495Z,9.20
2023-04-23T05:41:39.182Z,9.50
2023-04-23T05:44:05.880Z,9.70
2023-04-23T05:46:32.569Z,9.77
2023-04-23T05:48:59.417Z,9.86
2023-04-23T05:51:26.131Z,10.10
2023-04-23T05:53:52.878Z,10.30
2023-04-23T05:56:19.593Z,10.54
2023-04-23T05:58:46.443Z,10.78
2023-04-23T06:01:13.088Z,10.98
2023-04-23T06:03:42.199Z,11.08
2023-04-23T06:06:09.057Z,11.05
2023-04-23T06:08:35.959Z,10.97
2023-04-23T06:11:02.614Z,11.04
2023-04-23T06:13:30.892Z,11.01
2023-04-23T06:15:58.162Z,11.08
2023-04-23T06:18:24.870Z,11.20
2023-04-23T06:20:51.677Z,11.52
2023-04-23T06:23:18.308Z,11.81
2023-04-23T06:25:44.975Z,11.95
2023-04-23T06:28:11.655Z,12.11
2023-04-23T06:30:38.267Z,12.31
2023-04-23T06:33:05.000Z,12.49
2023-04-23T06:35:31.723Z,12.34
2023-04-23T06:37:58.379Z,12.18
2023-04-23T06:40:25.019Z,12.17
2023-04-23T06:42:51.679Z,12.34
2023-04-23T06:45:18.323Z,12.63
2023-04-23T06:47:45.301Z,12.84
2023-04-23T06:50:12.079Z,12.86
2023-04-23T06:52:38.720Z,12.93
2023-04-23T06:55:05.798Z,12.72
2023-04-23T06:57:32.454Z,12.69
2023-04-23T06:59:59.062Z,12.56
2023-04-23T07:02:26.330Z,12.26
2023-04-23T07:04:53.067Z,11.99
2023-04-23T07:07:19.946Z,11.69
2023-04-23T07:09:46.658Z,11.52
2023-04-23T07:12:13.307Z,11.56
2023-04-23T07:14:40.159Z,11.59
2023-04-23T07:17:07.132Z,11.67
2023-04-23T07:19:33.810Z,11.71
2023-04-23T07:22:00.467Z,11.70
2023-04-23T07:24:27.311Z,11.55
2023-04-23T07:26:53.947Z,11.56
2023-04-23T07:29:20.673Z,11.62
2023-04-23T07:31:48.437Z,11.59
2023-04-23T07:34:15.128Z,11.57
2023-04-23T07:36:41.733Z,11.55
2023-04-23T07:39:08.392Z,11.52
2023-04-23T07:41:35.499Z,11.49
2023-04-23T07:44:02.178Z,11.47
2023-04-23T07:46:28.867Z,11.46
2023-04-23T07:48:55.729Z,11.53
2023-04-23T07:51:22.768Z,11.49
2023-04-23T07:53:51.289Z,11.39
2023-04-23T07:56:17.976Z,11.47
2023-04-23T07:58:44.604Z,11.44
2023-04-23T08:01:11.274Z,11.50
2023-04-23T08:03:38.175Z,11.52
2023-04-23T08:06:05.263Z,11.55
2023-04-23T08:08:31.974Z,11.55
2023-04-23T08:10:58.855Z,11.63
2023-04-23T08:13:25.481Z,11.71
2023-04-23T08:15:52.352Z,11.77
2023-04-23T08:18:19.061Z,11.77
2023-04-23T08:20:45.673Z,11.98
2023-04-23T08:23:12.403Z,12.04
2023-04-23T08:25:39.047Z,12.05
2023-04-23T08:28:05.806Z,12.21
2023-04-23T08:30:32.555Z,12.50
2023-04-23T08:32:59.325Z,12.77
2023-04-23T08:35:26.005Z,12.86
2023-04-23T08:37:52.643Z,12.64
2023-04-23T08:40:19.383Z,12.39
2023-04-23T08:43:03.683Z,12.34
2023-04-23T08:45:30.773Z,12.21
2023-04-23T08:48:01.546Z,12.14
2023-04-23T08:50:29.346Z,11.97
2023-04-23T08:52:57.243Z,11.78
2023-04-23T08:55:24.041Z,11.65
2023-04-23T08:57:51.086Z,11.65
2023-04-23T09:00:18.914Z,11.62
2023-04-23T09:02:46.924Z,11.66
2023-04-23T09:05:13.946Z,11.73
2023-04-23T09:07:41.121Z,11.67
2023-04-23T09:10:08.627Z,11.80
2023-04-23T09:12:35.701Z,11.93
2023-04-23T09:15:03.284Z,12.39
2023-04-23T09:17:30.798Z,13.07
2023-04-23T09:19:57.758Z,13.38
2023-04-23T09:22:41.789Z,13.18
2023-04-23T09:25:10.294Z,13.00
2023-04-23T09:27:37.192Z,13.04
2023-04-23T09:30:09.756Z,13.03
2023-04-23T09:32:37.306Z,12.93
2023-04-23T09:35:07.937Z,12.86
2023-04-23T09:37:35.125Z,12.72
2023-04-23T09:40:04.403Z,12.67
2023-04-23T09:42:31.294Z,12.80
2023-04-23T09:45:01.117Z,12.93
2023-04-23T09:47:27.800Z,13.06
2023-04-23T09:49:54.529Z,13.08
2023-04-23T09:52:22.770Z,13.25
2023-04-23T09:54:49.558Z,13.44
2023-04-23T09:57:16.262Z,13.61
2023-04-23T09:59:48.827Z,13.63
2023-04-23T10:02:19.106Z,13.55
2023-04-23T10:04:46.024Z,13.57
2023-04-23T10:07:20.097Z,13.66
2023-04-23T10:09:47.656Z,13.95
2023-04-23T10:14:45.122Z,15.12
2023-04-23T10:17:12.099Z,15.55
2023-04-23T10:19:41.535Z,15.64
2023-04-23T10:22:18.379Z,15.41
2023-04-23T10:24:49.159Z,15.62
2023-04-23T10:27:28.526Z,15.44
2023-04-23T10:29:59.853Z,15.31
2023-04-23T10:32:26.592Z,15.24
2023-04-23T10:34:53.503Z,15.13
2023-04-23T10:37:20.166Z,14.86
2023-04-23T10:39:51.075Z,14.42
2023-04-23T10:42:17.746Z,14.21
2023-04-23T10:44:58.122Z,14.00
2023-04-23T10:47:29.621Z,13.87
2023-04-23T10:49:56.464Z,13.79
2023-04-23T10:52:25.812Z,13.89
2023-04-23T10:55:01.927Z,13.93
2023-04-23T10:57:28.733Z,13.49
2023-04-23T10:59:56.338Z,13.01
2023-04-23T11:02:26.696Z,12.44
2023-04-23T11:04:58.367Z,12.05
2023-04-23T11:07:32.255Z,11.69
2023-04-23T11:10:14.684Z,11.32
2023-04-23T11:12:41.459Z,11.02
2023-04-23T11:15:12.690Z,10.88
2023-04-23T11:17:39.326Z,10.82
2023-04-23T11:20:10.742Z,10.75
2023-04-23T11:22:38.380Z,10.71
2023-04-23T11:25:06.654Z,10.68
2023-04-23T11:27:33.372Z,10.72
2023-04-23T11:30:00.224Z,11.19
2023-04-23T11:32:27.981Z,11.46
2023-04-23T11:34:54.673Z,11.80
2023-04-23T11:37:21.415Z,12.08
2023-04-23T11:39:49.331Z,12.24
2023-04-23T11:42:16.521Z,12.29
2023-04-23T11:44:44.558Z,12.42
2023-04-23T11:47:12.625Z,12.67
2023-04-23T11:49:40.128Z,13.20
2023-04-23T11:52:07.150Z,13.44
2023-04-23T11:54:34.394Z,13.22
2023-04-23T11:57:01.600Z,13.10
2023-04-23T11:59:28.618Z,12.92
2023-04-23T12:01:57.550Z,12.89
2023-04-23T12:04:25.895Z,12.92
2023-04-23T12:06:53.627Z,12.79
2023-04-23T12:09:23.583Z,12.82
2023-04-23T12:11:53.321Z,12.87
2023-04-23T12:14:24.085Z,12.80
2023-04-23T12:16:53.893Z,12.77
2023-04-23T12:19:30.888Z,12.70
2023-04-23T12:21:59.083Z,12.59
2023-04-23T12:24:30.884Z,12.56
2023-04-23T12:27:02.623Z,12.52
2023-04-23T12:29:30.326Z,12.48
2023-04-23T12:31:59.088Z,12.45
2023-04-23T12:34:25.869Z,12.36
2023-04-23T12:36:54.374Z,12.44
2023-04-23T12:39:24.053Z,12.45
2023-04-23T12:41:52.204Z,12.52
2023-04-23T12:44:18.815Z,12.56
2023-04-23T12:46:45.513Z,12.46
2023-04-23T12:49:12.268Z,12.45
2023-04-23T12:51:38.973Z,12.32
2023-04-23T12:54:05.704Z,12.15
2023-04-23T12:56:32.485Z,12.07
2023-04-23T12:59:01.912Z,11.81
2023-04-23T13:01:28.800Z,11.55
2023-04-23T13:03:55.668Z,11.33
2023-04-23T13:06:22.487Z,11.16
2023-04-23T13:08:50.065Z,11.12
2023-04-23T13:11:16.867Z,11.09
2023-04-23T13:13:43.477Z,11.09
2023-04-23T13:16:10.127Z,11.05
2023-04-23T13:18:36.749Z,10.95
2023-04-23T13:21:03.403Z,10.80
2023-04-23T13:23:30.041Z,10.74
2023-04-23T13:25:56.728Z,10.65
2023-04-23T13:28:23.337Z,10.63
2023-04-23T13:30:49.986Z,10.56
2023-04-23T13:33:16.681Z,10.56
2023-04-23T13:35:43.318Z,10.61
2023-04-23T13:38:10.183Z,10.57
2023-04-23T13:40:38.020Z,10.54
2023-04-23T13:43:04.691Z,10.53
2023-04-23T13:45:31.388Z,10.59
2023-04-23T13:47:58.086Z,10.59
2023-04-23T13:50:24.859Z,10.61
2023-04-23T13:52:51.478Z,10.61
2023-04-23T13:55:18.302Z,10.64
2023-04-23T13:57:44.931Z,10.64
2023-04-23T14:00:12.788Z,10.67
2023-04-23T14:02:39.565Z,10.64
2023-04-23T14:05:06.850Z,10.70
2023-04-23T14:07:33.495Z,10.75
2023-04-23T14:10:00.196Z,10.87
2023-04-23T14:12:28.871Z,11.12
2023-04-23T14:14:55.852Z,11.35
2023-04-23T14:17:22.493Z,11.66
2023-04-23T14:19:49.177Z,11.77
2023-04-23T14:22:15.820Z,11.67
2023-04-23T14:24:46.698Z,11.47
2023-04-23T14:27:13.498Z,11.36
2023-04-23T14:29:41.099Z,11.25
2023-04-23T14:32:07.995Z,11.22
2023-04-23T14:34:37.896Z,11.23
2023-04-23T14:37:05.072Z,11.19
2023-04-23T14:39:33.518Z,11.11
2023-04-23T14:42:01.204Z,11.01
2023-04-23T14:44:28.237Z,11.00
2023-04-23T14:46:55.191Z,11.01
2023-04-23T14:49:21.878Z,11.05
2023-04-23T14:51:54.285Z,10.98
2023-04-23T14:54:22.260Z,10.88
2023-04-23T14:56:50.114Z,10.84
2023-04-23T14:59:17.159Z,10.85
2023-04-23T15:01:49.482Z,10.91
2023-04-23T15:04:22.526Z,10.94
2023-04-23T15:06:49.634Z,10.97
2023-04-23T15:09:17.216Z,10.94
2023-04-23T15:11:44.023Z,10.98
2023-04-23T15:14:33.417Z,11.05
2023-04-23T15:17:00.300Z,11.08
2023-04-23T15:19:27.222Z,11.04
2023-04-23T15:21:54.032Z,11.09
2023-04-23T15:24:20.904Z,11.09
2023-04-23T15:26:48.788Z,11.15
2023-04-23T15:29:15.717Z,11.20
2023-04-23T15:31:49.173Z,11.25
2023-04-23T15:34:16.077Z,11.28
2023-04-23T15:36:42.812Z,11.33
2023-04-23T15:39:09.707Z,11.32
2023-04-23T15:41:39.526Z,11.29
2023-04-23T15:44:13.419Z,11.25
2023-04-23T15:46:40.279Z,11.19
2023-04-23T15:49:07.053Z,11.15
2023-04-23T15:51:33.757Z,11.08
2023-04-23T15:54:02.285Z,11.07
2023-04-23T15:56:28.907Z,11.02
2023-04-23T15:58:55.707Z,10.92
2023-04-23T16:01:23.682Z,10.88
2023-04-23T16:04:07.965Z,10.82
2023-04-23T16:06:36.690Z,10.78
2023-04-23T16:09:06.730Z,10.71
2023-04-23T16:11:34.514Z,10.70
2023-04-23T16:14:01.216Z,10.70
2023-04-23T16:16:28.650Z,10.65
2023-04-23T16:18:56.351Z,10.68
2023-04-23T16:21:24.542Z,10.68
2023-04-23T16:23:51.405Z,10.70
2023-04-23T16:26:18.067Z,10.63
2023-04-23T16:28:51.951Z,10.59
2023-04-23T16:31:23.334Z,10.59
2023-04-23T16:33:50.070Z,10.56
2023-04-23T16:36:17.360Z,10.52
2023-04-23T16:38:49.341Z,10.44
2023-04-23T16:41:17.729Z,10.28
2023-04-23T16:43:44.373Z,10.13
2023-04-23T16:46:11.195Z,10.08
2023-04-23T16:48:37.859Z,10.05
2023-04-23T16:51:04.545Z,10.03
2023-04-23T16:53:31.179Z,10.06
2023-04-23T16:55:58.032Z,10.08
2023-04-23T16:58:24.770Z,10.03
2023-04-23T17:00:51.491Z,9.96
2023-04-23T17:03:18.255Z,9.95
2023-04-23T17:05:45.746Z,9.94
2023-04-23T17:08:12.754Z,9.91
2023-04-23T17:10:39.631Z,9.91
2023-04-23T17:13:06.352Z,9.89
2023-04-23T17:15:32.976Z,9.85
2023-04-23T17:17:59.727Z,9.85
2023-04-23T17:20:26.523Z,9.86
2023-04-23T17:22:53.176Z,9.79
2023-04-23T17:25:19.894Z,9.74
2023-04-23T17:27:46.784Z,9.71
2023-04-23T17:30:13.717Z,9.67
2023-04-23T17:32:40.445Z,9.64
2023-04-23T17:35:10.683Z,9.67
2023-04-23T17:37:37.681Z,9.61
2023-04-23T17:40:06.000Z,9.57
2023-04-23T17:42:32.959Z,9.48
2023-04-23T17:44:59.788Z,9.40
2023-04-23T17:47:27.694Z,9.38
2023-04-23T17:49:54.676Z,9.34
2023-04-23T17:52:21.355Z,9.33
2023-04-23T17:54:48.046Z,9.24
2023-04-23T17:57:14.813Z,9.22
2023-04-23T17:59:41.781Z,9.16
2023-04-23T18:02:08.682Z,9.13
2023-04-23T18:04:36.715Z,9.06
2023-04-23T18:07:03.523Z,9.03
2023-04-23T18:09:30.279Z,9.05
2023-04-23T18:11:57.479Z,8.99
2023-04-23T18:14:24.202Z,8.92
2023-04-23T18:16:51.165Z,8.83
2023-04-23T18:19:17.862Z,8.78
2023-04-23T18:21:48.010Z,8.72
2023-04-23T18:24:15.220Z,8.67
2023-04-23T18:26:41.876Z,8.69
2023-04-23T18:29:08.567Z,8.67
2023-04-23T18:31:36.692Z,8.65
2023-04-23T18:34:03.893Z,8.57
2023-04-23T18:36:36.129Z,8.50
2023-04-23T18:39:03.823Z,8.50
2023-04-23T18:41:31.040Z,8.44
2023-04-23T18:44:00.020Z,8.37
2023-04-23T18:46:27.843Z,8.21
2023-04-23T18:49:01.072Z,8.12
2023-04-23T18:51:33.296Z,8.07
2023-04-23T18:54:01.774Z,8.02
2023-04-23T18:56:28.599Z,8.00
2023-04-23T18:58:55.486Z,7.93
2023-04-23T19:01:22.828Z,7.90
2023-04-23T19:03:49.684Z,7.83
2023-04-23T19:06:16.566Z,7.76
2023-04-23T19:08:43.187Z,7.68
2023-04-23T19:11:09.889Z,7.55
2023-04-23T19:13:36.659Z,7.44
2023-04-23T19:16:03.339Z,7.38
2023-04-23T19:18:30.035Z,7.35
2023-04-23T19:20:57.032Z,7.28
2023-04-23T19:23:23.693Z,7.20
2023-04-23T19:25:50.332Z,7.16
2023-04-23T19:28:16.967Z,7.07
2023-04-23T19:30:43.693Z,7.04
2023-04-23T19:33:10.509Z,7.00
2023-04-23T19:35:39.890Z,6.90
2023-04-23T19:38:07.047Z,6.89
2023-04-23T19:40:33.755Z,6.82
2023-04-23T19:43:00.444Z,6.80
2023-04-23T19:45:27.121Z,6.80
2023-04-23T19:47:53.879Z,6.76
2023-04-23T19:50:20.796Z,6.76
2023-04-23T19:52:47.544Z,6.71
2023-04-23T19:55:14.225Z,6.66
2023-04-23T19:57:40.899Z,6.65
2023-04-23T20:00:11.677Z,6.59
2023-04-23T20:02:38.441Z,6.53
2023-04-23T20:05:06.216Z,6.52
2023-04-23T20:07:33.061Z,6.42
2023-04-23T20:09:59.663Z,6.41
2023-04-23T20:12:26.348Z,6.34
2023-04-23T20:14:54.364Z,6.32
2023-04-23T20:17:20.985Z,6.28
2023-04-23T20:19:47.815Z,6.27
2023-04-23T20:22:14.433Z,6.27
2023-04-23T20:24:46.282Z,6.22
2023-04-23T20:27:13.230Z,6.22
2023-04-23T20:29:40.034Z,6.22
2023-04-23T20:32:06.829Z,6.21
2023-04-23T20:34:33.469Z,6.27
2023-04-23T20:37:00.261Z,6.20
2023-04-23T20:39:26.938Z,6.18
2023-04-23T20:41:54.994Z,6.14
2023-04-23T20:44:22.759Z,6.14
2023-04-23T20:46:52.901Z,6.14
2023-04-23T20:49:19.659Z,6.07
2023-04-23T20:51:48.969Z,6.09
2023-04-23T20:54:15.576Z,6.06
2023-04-23T20:56:42.534Z,6.00
2023-04-23T20:59:09.146Z,5.99
2023-04-23T21:01:35.867Z,5.93
2023-04-23T21:04:02.838Z,5.86
2023-04-23T21:06:31.309Z,5.81
2023-04-23T21:08:58.145Z,5.77
2023-04-23T21:11:25.000Z,5.74
2023-04-23T21:13:51.660Z,5.72
2023-04-23T21:16:18.402Z,5.69
2023-04-23T21:18:45.237Z,5.66
2023-04-23T21:21:11.926Z,5.62
2023-04-23T21:23:38.594Z,5.62
2023-04-23T21:26:05.398Z,5.59
2023-04-23T21:28:32.124Z,5.58
2023-04-23T21:31:01.621Z,5.56
2023-04-23T21:33:28.288Z,5.53
2023-04-23T21:35:54.951Z,5.48
2023-04-23T21:38:21.652Z,5.48
2023-04-23T21:40:48.357Z,5.46
2023-04-23T21:43:15.059Z,5.41
2023-04-23T21:45:41.749Z,5.42
2023-04-23T21:48:08.560Z,5.35
2023-04-23T21:50:36.132Z,5.34
2023-04-23T21:53:03.177Z,5.31
2023-04-23T21:55:31.559Z,5.24
2023-04-23T21:58:09.752Z,5.20
2023-04-23T22:00:44.568Z,5.20
2023-04-23T22:03:12.006Z,5.17
2023-04-23T22:05:39.993Z,5.11
2023-04-23T22:08:09.710Z,5.07
2023-04-23T22:10:42.782Z,5.04
2023-04-23T22:13:09.890Z,5.01
2023-04-23T22:15:36.933Z,4.98
2023-04-23T22:18:03.673Z,4.97
2023-04-23T22:20:30.778Z,4.94
2023-04-23T22:22:57.454Z,4.85
2023-04-23T22:25:24.138Z,4.81
2023-04-23T22:27:51.020Z,4.77
2023-04-23T22:30:17.733Z,4.79
2023-04-23T22:32:44.542Z,4.81
2023-04-23T22:35:11.515Z,4.85
2023-04-23T22:37:38.231Z,4.88
2023-04-23T22:40:05.555Z,4.85
2023-04-23T22:42:32.224Z,4.81
2023-04-23T22:44:58.861Z,4.83
2023-04-23T22:47:25.611Z,4.76
2023-04-23T22:49:52.354Z,4.76
2023-04-23T22:52:19.077Z,4.77
2023-04-23T22:54:46.545Z,4.74
2023-04-23T22:57:13.252Z,4.76
2023-04-23T22:59:40.351Z,4.73
2023-04-23T23:02:07.500Z,4.76
2023-04-23T23:04:37.828Z,4.74
2023-04-23T23:07:07.675Z,4.74
2023-04-23T23:09:34.359Z,4.70
2023-04-23T23:12:04.263Z,4.65
2023-04-23T23:14:31.759Z,4.63
2023-04-23T23:16:58.453Z,4.60
2023-04-23T23:19:26.968Z,4.55
2023-04-23T23:21:53.677Z,4.52
2023-04-23T23:24:20.504Z,4.49
2023-04-23T23:26:47.119Z,4.48
2023-04-23T23:29:13.769Z,4.49
2023-04-23T23:31:40.500Z,4.41
2023-04-23T23:34:07.230Z,4.39
2023-04-23T23:36:34.201Z,4.41
2023-04-23T23:39:00.893Z,4.38
2023-04-23T23:41:27.550Z,4.32
2023-04-23T23:43:54.301Z,4.28
2023-04-23T23:46:21.063Z,4.26
2023-04-23T23:48:47.783Z,4.19
2023-04-23T23:51:14.512Z,4.18
2023-04-23T23:53:41.165Z,4.15
2023-04-23T23:56:07.875Z,4.18
2023-04-23T23:58:34.473Z,4.12
